sensor_id;sensor_type;location;lat;lon;timestamp;temperature;humidity
80274;DHT22;69576;51.902;-8.462;2024-02-28T00:02:02;11.70;65.60
80274;DHT22;69576;51.902;-8.462;2024-02-28T00:04:27;11.70;65.70
80274;DHT22;69576;51.902;-8.462;2024-02-28T00:06:55;11.70;65.60
80274;DHT22;69576;51.902;-8.462;2024-02-28T00:09:21;11.70;65.70
80274;DHT22;69576;51.902;-8.462;2024-02-28T00:11:47;11.70;65.60
80274;DHT22;69576;51.902;-8.462;2024-02-28T00:14:13;11.70;65.80
80274;DHT22;69576;51.902;-8.462;2024-02-28T00:16:43;11.70;65.80
80274;DHT22;69576;51.902;-8.462;2024-02-28T00:19:12;11.70;65.80
80274;DHT22;69576;51.902;-8.462;2024-02-28T00:21:39;11.70;66.30
80274;DHT22;69576;51.902;-8.462;2024-02-28T00:24:08;11.70;66.20
80274;DHT22;69576;51.902;-8.462;2024-02-28T00:26:34;11.70;66.00
80274;DHT22;69576;51.902;-8.462;2024-02-28T00:29:00;11.70;66.00
80274;DHT22;69576;51.902;-8.462;2024-02-28T00:31:30;11.70;65.90
80274;DHT22;69576;51.902;-8.462;2024-02-28T00:34:01;11.70;65.90
80274;DHT22;69576;51.902;-8.462;2024-02-28T00:36:26;11.70;65.90
80274;DHT22;69576;51.902;-8.462;2024-02-28T00:38:55;11.70;66.00
80274;DHT22;69576;51.902;-8.462;2024-02-28T00:41:23;11.70;66.10
80274;DHT22;69576;51.902;-8.462;2024-02-28T00:43:48;11.70;66.00
80274;DHT22;69576;51.902;-8.462;2024-02-28T00:46:14;11.70;66.10
80274;DHT22;69576;51.902;-8.462;2024-02-28T00:48:42;11.70;66.10
80274;DHT22;69576;51.902;-8.462;2024-02-28T00:51:11;11.70;66.10
80274;DHT22;69576;51.902;-8.462;2024-02-28T00:53:39;11.70;66.10
80274;DHT22;69576;51.902;-8.462;2024-02-28T00:56:07;11.60;66.10
80274;DHT22;69576;51.902;-8.462;2024-02-28T00:58:33;11.60;66.10
80274;DHT22;69576;51.902;-8.462;2024-02-28T01:01:01;11.60;66.20
80274;DHT22;69576;51.902;-8.462;2024-02-28T01:03:27;11.60;66.20
80274;DHT22;69576;51.902;-8.462;2024-02-28T01:05:55;11.50;66.30
80274;DHT22;69576;51.902;-8.462;2024-02-28T01:08:23;11.60;66.40
80274;DHT22;69576;51.902;-8.462;2024-02-28T01:10:49;11.60;66.50
80274;DHT22;69576;51.902;-8.462;2024-02-28T01:13:17;11.60;66.50
80274;DHT22;69576;51.902;-8.462;2024-02-28T01:15:42;11.60;66.40
80274;DHT22;69576;51.902;-8.462;2024-02-28T01:18:11;11.50;66.40
80274;DHT22;69576;51.902;-8.462;2024-02-28T01:20:39;11.60;66.50
80274;DHT22;69576;51.902;-8.462;2024-02-28T01:23:07;11.60;66.40
80274;DHT22;69576;51.902;-8.462;2024-02-28T01:25:32;11.60;66.50
80274;DHT22;69576;51.902;-8.462;2024-02-28T01:28:03;11.60;66.50
80274;DHT22;69576;51.902;-8.462;2024-02-28T01:30:32;11.60;66.60
80274;DHT22;69576;51.902;-8.462;2024-02-28T01:32:57;11.60;66.50
80274;DHT22;69576;51.902;-8.462;2024-02-28T01:35:23;11.50;66.70
80274;DHT22;69576;51.902;-8.462;2024-02-28T01:37:51;11.60;66.70
80274;DHT22;69576;51.902;-8.462;2024-02-28T01:40:20;11.60;66.90
80274;DHT22;69576;51.902;-8.462;2024-02-28T01:42:46;11.50;66.90
80274;DHT22;69576;51.902;-8.462;2024-02-28T01:45:17;11.60;67.00
80274;DHT22;69576;51.902;-8.462;2024-02-28T01:47:45;11.50;66.90
80274;DHT22;69576;51.902;-8.462;2024-02-28T01:50:13;11.60;67.00
80274;DHT22;69576;51.902;-8.462;2024-02-28T01:52:42;11.60;67.10
80274;DHT22;69576;51.902;-8.462;2024-02-28T01:55:08;11.50;67.20
80274;DHT22;69576;51.902;-8.462;2024-02-28T01:57:36;11.60;67.20
80274;DHT22;69576;51.902;-8.462;2024-02-28T02:00:03;11.50;67.20
80274;DHT22;69576;51.902;-8.462;2024-02-28T02:02:29;11.60;67.20
80274;DHT22;69576;51.902;-8.462;2024-02-28T02:04:55;11.60;67.20
80274;DHT22;69576;51.902;-8.462;2024-02-28T02:07:23;11.60;67.20
80274;DHT22;69576;51.902;-8.462;2024-02-28T02:09:54;11.60;67.30
80274;DHT22;69576;51.902;-8.462;2024-02-28T02:12:20;11.50;67.30
80274;DHT22;69576;51.902;-8.462;2024-02-28T02:14:49;11.60;67.30
80274;DHT22;69576;51.902;-8.462;2024-02-28T02:17:15;11.50;67.30
80274;DHT22;69576;51.902;-8.462;2024-02-28T02:19:46;11.50;67.40
80274;DHT22;69576;51.902;-8.462;2024-02-28T02:22:14;11.50;67.40
80274;DHT22;69576;51.902;-8.462;2024-02-28T02:24:44;11.50;67.40
80274;DHT22;69576;51.902;-8.462;2024-02-28T02:27:10;11.60;67.40
80274;DHT22;69576;51.902;-8.462;2024-02-28T02:29:36;11.60;67.30
80274;DHT22;69576;51.902;-8.462;2024-02-28T02:32:01;11.60;67.30
80274;DHT22;69576;51.902;-8.462;2024-02-28T02:34:27;11.60;67.30
80274;DHT22;69576;51.902;-8.462;2024-02-28T02:36:56;11.60;67.40
80274;DHT22;69576;51.902;-8.462;2024-02-28T02:39:21;11.50;67.30
80274;DHT22;69576;51.902;-8.462;2024-02-28T02:41:49;11.50;67.30
80274;DHT22;69576;51.902;-8.462;2024-02-28T02:44:16;11.50;67.50
80274;DHT22;69576;51.902;-8.462;2024-02-28T02:46:41;11.50;67.60
80274;DHT22;69576;51.902;-8.462;2024-02-28T02:49:10;11.50;67.60
80274;DHT22;69576;51.902;-8.462;2024-02-28T02:51:35;11.50;67.60
80274;DHT22;69576;51.902;-8.462;2024-02-28T02:54:01;11.50;67.70
80274;DHT22;69576;51.902;-8.462;2024-02-28T02:56:27;11.50;67.70
80274;DHT22;69576;51.902;-8.462;2024-02-28T02:58:53;11.50;67.70
80274;DHT22;69576;51.902;-8.462;2024-02-28T03:01:21;11.50;67.90
80274;DHT22;69576;51.902;-8.462;2024-02-28T03:03:49;11.50;67.90
80274;DHT22;69576;51.902;-8.462;2024-02-28T03:06:19;11.50;67.80
80274;DHT22;69576;51.902;-8.462;2024-02-28T03:08:47;11.50;67.80
80274;DHT22;69576;51.902;-8.462;2024-02-28T03:11:15;11.50;68.00
80274;DHT22;69576;51.902;-8.462;2024-02-28T03:13:43;11.50;67.80
80274;DHT22;69576;51.902;-8.462;2024-02-28T03:16:09;11.50;68.00
80274;DHT22;69576;51.902;-8.462;2024-02-28T03:18:35;11.50;68.00
80274;DHT22;69576;51.902;-8.462;2024-02-28T03:21:03;11.50;68.00
80274;DHT22;69576;51.902;-8.462;2024-02-28T03:23:32;11.50;68.00
80274;DHT22;69576;51.902;-8.462;2024-02-28T03:26:00;11.50;68.10
80274;DHT22;69576;51.902;-8.462;2024-02-28T03:28:33;11.50;68.10
80274;DHT22;69576;51.902;-8.462;2024-02-28T03:31:01;11.50;68.00
80274;DHT22;69576;51.902;-8.462;2024-02-28T03:33:31;11.50;68.00
80274;DHT22;69576;51.902;-8.462;2024-02-28T03:35:58;11.50;68.10
80274;DHT22;69576;51.902;-8.462;2024-02-28T03:38:24;11.50;68.10
80274;DHT22;69576;51.902;-8.462;2024-02-28T03:40:49;11.50;68.20
80274;DHT22;69576;51.902;-8.462;2024-02-28T03:43:17;11.50;68.30
80274;DHT22;69576;51.902;-8.462;2024-02-28T03:45:43;11.50;68.40
80274;DHT22;69576;51.902;-8.462;2024-02-28T03:48:13;11.50;68.30
80274;DHT22;69576;51.902;-8.462;2024-02-28T03:50:41;11.50;68.40
80274;DHT22;69576;51.902;-8.462;2024-02-28T03:53:10;11.50;68.50
80274;DHT22;69576;51.902;-8.462;2024-02-28T03:55:42;11.50;68.50
80274;DHT22;69576;51.902;-8.462;2024-02-28T03:58:10;11.50;68.60
80274;DHT22;69576;51.902;-8.462;2024-02-28T04:00:36;11.40;68.60
80274;DHT22;69576;51.902;-8.462;2024-02-28T04:03:02;11.50;68.60
80274;DHT22;69576;51.902;-8.462;2024-02-28T04:05:31;11.50;68.60
80274;DHT22;69576;51.902;-8.462;2024-02-28T04:08:01;11.50;68.60
80274;DHT22;69576;51.902;-8.462;2024-02-28T04:10:26;11.50;68.60
80274;DHT22;69576;51.902;-8.462;2024-02-28T04:12:52;11.50;68.70
80274;DHT22;69576;51.902;-8.462;2024-02-28T04:15:18;11.40;68.90
80274;DHT22;69576;51.902;-8.462;2024-02-28T04:17:46;11.40;69.00
80274;DHT22;69576;51.902;-8.462;2024-02-28T04:20:13;11.40;68.90
80274;DHT22;69576;51.902;-8.462;2024-02-28T04:22:41;11.50;69.00
80274;DHT22;69576;51.902;-8.462;2024-02-28T04:25:11;11.50;69.00
80274;DHT22;69576;51.902;-8.462;2024-02-28T04:27:38;11.50;69.00
80274;DHT22;69576;51.902;-8.462;2024-02-28T04:30:06;11.50;69.00
80274;DHT22;69576;51.902;-8.462;2024-02-28T04:32:35;11.50;69.10
80274;DHT22;69576;51.902;-8.462;2024-02-28T04:35:04;11.50;69.20
80274;DHT22;69576;51.902;-8.462;2024-02-28T04:37:30;11.50;69.20
80274;DHT22;69576;51.902;-8.462;2024-02-28T04:39:55;11.50;69.30
80274;DHT22;69576;51.902;-8.462;2024-02-28T04:42:21;11.50;69.30
80274;DHT22;69576;51.902;-8.462;2024-02-28T04:44:47;11.50;69.40
80274;DHT22;69576;51.902;-8.462;2024-02-28T04:47:13;11.50;69.40
80274;DHT22;69576;51.902;-8.462;2024-02-28T04:49:39;11.50;69.50
80274;DHT22;69576;51.902;-8.462;2024-02-28T04:52:05;11.50;69.40
80274;DHT22;69576;51.902;-8.462;2024-02-28T04:54:34;11.50;69.50
80274;DHT22;69576;51.902;-8.462;2024-02-28T04:57:00;11.50;69.50
80274;DHT22;69576;51.902;-8.462;2024-02-28T04:59:26;11.50;69.60
80274;DHT22;69576;51.902;-8.462;2024-02-28T05:01:52;11.50;69.70
80274;DHT22;69576;51.902;-8.462;2024-02-28T05:04:18;11.50;69.80
80274;DHT22;69576;51.902;-8.462;2024-02-28T05:06:44;11.50;69.80
80274;DHT22;69576;51.902;-8.462;2024-02-28T05:09:10;11.50;69.70
80274;DHT22;69576;51.902;-8.462;2024-02-28T05:11:36;11.50;69.80
80274;DHT22;69576;51.902;-8.462;2024-02-28T05:14:04;11.50;69.80
80274;DHT22;69576;51.902;-8.462;2024-02-28T05:16:30;11.50;69.90
80274;DHT22;69576;51.902;-8.462;2024-02-28T05:18:58;11.50;69.90
80274;DHT22;69576;51.902;-8.462;2024-02-28T05:21:26;11.50;70.00
80274;DHT22;69576;51.902;-8.462;2024-02-28T05:23:54;11.60;69.90
80274;DHT22;69576;51.902;-8.462;2024-02-28T05:26:20;11.60;70.00
80274;DHT22;69576;51.902;-8.462;2024-02-28T05:28:48;11.60;70.00
80274;DHT22;69576;51.902;-8.462;2024-02-28T05:31:24;11.60;70.10
80274;DHT22;69576;51.902;-8.462;2024-02-28T05:33:56;11.70;70.10
80274;DHT22;69576;51.902;-8.462;2024-02-28T05:36:29;11.70;70.10
80274;DHT22;69576;51.902;-8.462;2024-02-28T05:38:59;11.70;70.20
80274;DHT22;69576;51.902;-8.462;2024-02-28T05:41:28;11.70;70.10
80274;DHT22;69576;51.902;-8.462;2024-02-28T05:43:56;11.70;70.20
80274;DHT22;69576;51.902;-8.462;2024-02-28T05:46:22;11.70;70.20
80274;DHT22;69576;51.902;-8.462;2024-02-28T05:48:48;11.70;70.20
80274;DHT22;69576;51.902;-8.462;2024-02-28T05:51:16;11.70;70.20
80274;DHT22;69576;51.902;-8.462;2024-02-28T05:53:44;11.70;70.30
80274;DHT22;69576;51.902;-8.462;2024-02-28T05:56:15;11.80;70.20
80274;DHT22;69576;51.902;-8.462;2024-02-28T05:58:44;11.70;70.30
80274;DHT22;69576;51.902;-8.462;2024-02-28T06:01:10;11.80;70.20
80274;DHT22;69576;51.902;-8.462;2024-02-28T06:03:37;11.80;70.30
80274;DHT22;69576;51.902;-8.462;2024-02-28T06:06:03;11.90;70.30
80274;DHT22;69576;51.902;-8.462;2024-02-28T06:08:38;11.90;70.30
80274;DHT22;69576;51.902;-8.462;2024-02-28T06:11:04;11.90;70.30
80274;DHT22;69576;51.902;-8.462;2024-02-28T06:13:33;11.90;70.40
80274;DHT22;69576;51.902;-8.462;2024-02-28T06:15:59;11.90;70.40
80274;DHT22;69576;51.902;-8.462;2024-02-28T06:18:25;11.90;70.20
80274;DHT22;69576;51.902;-8.462;2024-02-28T06:20:55;11.90;70.20
80274;DHT22;69576;51.902;-8.462;2024-02-28T06:23:26;11.90;70.40
80274;DHT22;69576;51.902;-8.462;2024-02-28T06:25:55;12.00;70.60
80274;DHT22;69576;51.902;-8.462;2024-02-28T06:28:21;12.00;70.50
80274;DHT22;69576;51.902;-8.462;2024-02-28T06:30:49;12.10;70.60
80274;DHT22;69576;51.902;-8.462;2024-02-28T06:33:15;12.00;70.70
80274;DHT22;69576;51.902;-8.462;2024-02-28T06:35:44;12.10;70.40
80274;DHT22;69576;51.902;-8.462;2024-02-28T06:38:09;12.10;70.50
80274;DHT22;69576;51.902;-8.462;2024-02-28T06:40:40;12.10;70.40
80274;DHT22;69576;51.902;-8.462;2024-02-28T06:43:09;12.10;70.50
80274;DHT22;69576;51.902;-8.462;2024-02-28T06:45:37;12.10;70.60
80274;DHT22;69576;51.902;-8.462;2024-02-28T06:48:03;12.20;70.50
80274;DHT22;69576;51.902;-8.462;2024-02-28T06:50:31;12.20;70.50
80274;DHT22;69576;51.902;-8.462;2024-02-28T06:52:57;12.30;70.50
80274;DHT22;69576;51.902;-8.462;2024-02-28T06:55:23;12.30;70.40
80274;DHT22;69576;51.902;-8.462;2024-02-28T06:57:49;12.30;70.50
80274;DHT22;69576;51.902;-8.462;2024-02-28T07:00:15;12.50;70.50
80274;DHT22;69576;51.902;-8.462;2024-02-28T07:02:41;12.50;70.50
80274;DHT22;69576;51.902;-8.462;2024-02-28T07:05:07;12.50;70.60
80274;DHT22;69576;51.902;-8.462;2024-02-28T07:07:35;12.50;70.60
80274;DHT22;69576;51.902;-8.462;2024-02-28T07:10:03;12.50;70.50
80274;DHT22;69576;51.902;-8.462;2024-02-28T07:12:32;12.50;70.70
80274;DHT22;69576;51.902;-8.462;2024-02-28T07:15:00;12.60;70.60
80274;DHT22;69576;51.902;-8.462;2024-02-28T07:17:26;12.70;70.70
80274;DHT22;69576;51.902;-8.462;2024-02-28T07:19:52;12.70;70.60
80274;DHT22;69576;51.902;-8.462;2024-02-28T07:22:20;12.80;70.90
80274;DHT22;69576;51.902;-8.462;2024-02-28T07:24:49;12.90;71.00
80274;DHT22;69576;51.902;-8.462;2024-02-28T07:27:17;13.00;71.00
80274;DHT22;69576;51.902;-8.462;2024-02-28T07:29:45;13.10;71.00
80274;DHT22;69576;51.902;-8.462;2024-02-28T07:32:11;13.20;70.80
80274;DHT22;69576;51.902;-8.462;2024-02-28T07:34:36;13.30;70.80
80274;DHT22;69576;51.902;-8.462;2024-02-28T07:37:05;13.30;70.80
80274;DHT22;69576;51.902;-8.462;2024-02-28T07:39:31;13.40;70.70
80274;DHT22;69576;51.902;-8.462;2024-02-28T07:41:56;13.50;70.50
80274;DHT22;69576;51.902;-8.462;2024-02-28T07:44:22;13.50;70.20
80274;DHT22;69576;51.902;-8.462;2024-02-28T07:46:50;13.40;70.00
80274;DHT22;69576;51.902;-8.462;2024-02-28T07:49:18;13.40;70.00
80274;DHT22;69576;51.902;-8.462;2024-02-28T07:51:47;13.40;70.30
80274;DHT22;69576;51.902;-8.462;2024-02-28T07:54:12;13.50;70.40
80274;DHT22;69576;51.902;-8.462;2024-02-28T07:56:40;13.50;70.50
80274;DHT22;69576;51.902;-8.462;2024-02-28T07:59:06;13.50;70.50
80274;DHT22;69576;51.902;-8.462;2024-02-28T08:01:34;13.50;70.50
80274;DHT22;69576;51.902;-8.462;2024-02-28T08:04:01;13.50;70.40
80274;DHT22;69576;51.902;-8.462;2024-02-28T08:06:32;13.50;70.30
80274;DHT22;69576;51.902;-8.462;2024-02-28T08:09:03;13.50;70.40
80274;DHT22;69576;51.902;-8.462;2024-02-28T08:11:31;13.50;70.40
80274;DHT22;69576;51.902;-8.462;2024-02-28T08:13:57;13.50;70.30
80274;DHT22;69576;51.902;-8.462;2024-02-28T08:16:25;13.50;70.30
80274;DHT22;69576;51.902;-8.462;2024-02-28T08:18:55;13.50;70.40
80274;DHT22;69576;51.902;-8.462;2024-02-28T08:21:21;13.50;70.50
80274;DHT22;69576;51.902;-8.462;2024-02-28T08:23:46;13.60;70.50
80274;DHT22;69576;51.902;-8.462;2024-02-28T08:26:15;13.60;70.40
80274;DHT22;69576;51.902;-8.462;2024-02-28T08:28:41;13.60;70.30
80274;DHT22;69576;51.902;-8.462;2024-02-28T08:31:06;13.60;70.30
80274;DHT22;69576;51.902;-8.462;2024-02-28T08:33:32;13.60;70.20
80274;DHT22;69576;51.902;-8.462;2024-02-28T08:36:01;13.60;70.20
80274;DHT22;69576;51.902;-8.462;2024-02-28T08:38:28;13.60;70.20
80274;DHT22;69576;51.902;-8.462;2024-02-28T08:40:57;13.60;70.10
80274;DHT22;69576;51.902;-8.462;2024-02-28T08:43:25;13.60;70.10
80274;DHT22;69576;51.902;-8.462;2024-02-28T08:45:51;13.60;70.10
80274;DHT22;69576;51.902;-8.462;2024-02-28T08:48:22;13.70;70.10
80274;DHT22;69576;51.902;-8.462;2024-02-28T08:50:48;13.70;70.00
80274;DHT22;69576;51.902;-8.462;2024-02-28T08:53:16;13.70;70.00
80274;DHT22;69576;51.902;-8.462;2024-02-28T08:55:42;13.70;70.00
80274;DHT22;69576;51.902;-8.462;2024-02-28T08:58:10;13.70;70.00
80274;DHT22;69576;51.902;-8.462;2024-02-28T09:00:36;13.70;70.00
80274;DHT22;69576;51.902;-8.462;2024-02-28T09:03:06;13.70;70.10
80274;DHT22;69576;51.902;-8.462;2024-02-28T09:05:37;13.70;70.10
80274;DHT22;69576;51.902;-8.462;2024-02-28T09:08:05;13.70;70.10
80274;DHT22;69576;51.902;-8.462;2024-02-28T09:10:34;13.70;70.30
80274;DHT22;69576;51.902;-8.462;2024-02-28T09:13:00;13.70;70.30
80274;DHT22;69576;51.902;-8.462;2024-02-28T09:15:28;13.70;70.20
80274;DHT22;69576;51.902;-8.462;2024-02-28T09:17:54;13.70;70.20
80274;DHT22;69576;51.902;-8.462;2024-02-28T09:20:19;13.70;70.20
80274;DHT22;69576;51.902;-8.462;2024-02-28T09:22:48;13.70;70.30
80274;DHT22;69576;51.902;-8.462;2024-02-28T09:25:20;13.70;70.20
80274;DHT22;69576;51.902;-8.462;2024-02-28T09:27:47;13.70;70.20
80274;DHT22;69576;51.902;-8.462;2024-02-28T09:30:13;13.70;70.30
80274;DHT22;69576;51.902;-8.462;2024-02-28T09:32:39;13.70;70.30
80274;DHT22;69576;51.902;-8.462;2024-02-28T09:35:10;13.70;70.30
80274;DHT22;69576;51.902;-8.462;2024-02-28T09:37:37;13.70;70.20
80274;DHT22;69576;51.902;-8.462;2024-02-28T09:40:03;13.70;70.30
80274;DHT22;69576;51.902;-8.462;2024-02-28T09:42:31;13.70;70.30
80274;DHT22;69576;51.902;-8.462;2024-02-28T09:45:00;13.70;70.20
80274;DHT22;69576;51.902;-8.462;2024-02-28T09:47:26;13.70;70.30
80274;DHT22;69576;51.902;-8.462;2024-02-28T09:49:53;13.70;70.20
80274;DHT22;69576;51.902;-8.462;2024-02-28T09:52:21;13.70;70.30
80274;DHT22;69576;51.902;-8.462;2024-02-28T09:54:47;13.80;70.40
80274;DHT22;69576;51.902;-8.462;2024-02-28T09:57:13;13.80;70.30
80274;DHT22;69576;51.902;-8.462;2024-02-28T09:59:40;13.90;70.30
80274;DHT22;69576;51.902;-8.462;2024-02-28T10:02:10;13.90;70.20
80274;DHT22;69576;51.902;-8.462;2024-02-28T10:04:40;13.90;70.40
80274;DHT22;69576;51.902;-8.462;2024-02-28T10:07:15;13.90;70.30
80274;DHT22;69576;51.902;-8.462;2024-02-28T10:09:41;14.00;70.30
80274;DHT22;69576;51.902;-8.462;2024-02-28T10:12:07;14.00;70.30
80274;DHT22;69576;51.902;-8.462;2024-02-28T10:14:36;14.00;70.20
80274;DHT22;69576;51.902;-8.462;2024-02-28T10:17:06;14.00;70.20
80274;DHT22;69576;51.902;-8.462;2024-02-28T10:19:33;14.10;70.00
80274;DHT22;69576;51.902;-8.462;2024-02-28T10:21:59;14.10;70.00
80274;DHT22;69576;51.902;-8.462;2024-02-28T10:24:27;14.10;70.00
80274;DHT22;69576;51.902;-8.462;2024-02-28T10:26:53;14.10;69.90
80274;DHT22;69576;51.902;-8.462;2024-02-28T10:29:25;14.10;69.90
80274;DHT22;69576;51.902;-8.462;2024-02-28T10:31:56;14.20;70.00
80274;DHT22;69576;51.902;-8.462;2024-02-28T10:34:23;14.20;69.90
80274;DHT22;69576;51.902;-8.462;2024-02-28T10:36:49;14.20;69.80
80274;DHT22;69576;51.902;-8.462;2024-02-28T10:39:15;14.30;69.80
80274;DHT22;69576;51.902;-8.462;2024-02-28T10:41:41;14.30;69.90
80274;DHT22;69576;51.902;-8.462;2024-02-28T10:44:09;14.30;70.10
80274;DHT22;69576;51.902;-8.462;2024-02-28T10:46:38;14.30;69.70
80274;DHT22;69576;51.902;-8.462;2024-02-28T10:49:09;14.30;69.50
80274;DHT22;69576;51.902;-8.462;2024-02-28T10:51:39;14.30;69.60
80274;DHT22;69576;51.902;-8.462;2024-02-28T10:54:11;14.30;69.90
80274;DHT22;69576;51.902;-8.462;2024-02-28T10:56:37;14.40;70.40
80274;DHT22;69576;51.902;-8.462;2024-02-28T10:59:11;14.40;70.60
80274;DHT22;69576;51.902;-8.462;2024-02-28T11:01:44;14.40;70.00
80274;DHT22;69576;51.902;-8.462;2024-02-28T11:04:15;14.40;70.40
80274;DHT22;69576;51.902;-8.462;2024-02-28T11:06:52;14.40;70.20
80274;DHT22;69576;51.902;-8.462;2024-02-28T11:09:25;14.40;70.00
80274;DHT22;69576;51.902;-8.462;2024-02-28T11:11:54;14.40;69.90
80274;DHT22;69576;51.902;-8.462;2024-02-28T11:14:24;14.30;69.80
80274;DHT22;69576;51.902;-8.462;2024-02-28T11:17:04;14.40;70.40
80274;DHT22;69576;51.902;-8.462;2024-02-28T11:19:31;14.40;70.80
80274;DHT22;69576;51.902;-8.462;2024-02-28T11:21:59;14.40;70.30
80274;DHT22;69576;51.902;-8.462;2024-02-28T11:24:29;14.40;70.20
80274;DHT22;69576;51.902;-8.462;2024-02-28T11:26:56;14.40;70.60
80274;DHT22;69576;51.902;-8.462;2024-02-28T11:29:28;14.40;71.00
80274;DHT22;69576;51.902;-8.462;2024-02-28T11:31:54;14.40;71.00
80274;DHT22;69576;51.902;-8.462;2024-02-28T11:34:21;14.30;70.90
80274;DHT22;69576;51.902;-8.462;2024-02-28T11:36:50;14.30;71.10
80274;DHT22;69576;51.902;-8.462;2024-02-28T11:39:17;14.30;70.50
80274;DHT22;69576;51.902;-8.462;2024-02-28T11:41:44;14.30;70.30
80274;DHT22;69576;51.902;-8.462;2024-02-28T11:44:16;14.30;70.20
80274;DHT22;69576;51.902;-8.462;2024-02-28T11:46:46;14.30;70.20
80274;DHT22;69576;51.902;-8.462;2024-02-28T11:49:18;14.20;70.10
80274;DHT22;69576;51.902;-8.462;2024-02-28T11:51:46;14.20;70.50
80274;DHT22;69576;51.902;-8.462;2024-02-28T11:54:16;14.20;71.10
80274;DHT22;69576;51.902;-8.462;2024-02-28T11:56:42;14.20;70.70
80274;DHT22;69576;51.902;-8.462;2024-02-28T11:59:11;14.20;71.20
80274;DHT22;69576;51.902;-8.462;2024-02-28T12:01:43;14.20;71.20
80274;DHT22;69576;51.902;-8.462;2024-02-28T12:04:16;14.30;71.10
80274;DHT22;69576;51.902;-8.462;2024-02-28T12:06:42;14.30;70.90
80274;DHT22;69576;51.902;-8.462;2024-02-28T12:09:12;14.30;70.80
80274;DHT22;69576;51.902;-8.462;2024-02-28T12:11:40;14.30;71.00
80274;DHT22;69576;51.902;-8.462;2024-02-28T12:14:08;14.30;70.90
80274;DHT22;69576;51.902;-8.462;2024-02-28T12:16:38;14.30;71.20
80274;DHT22;69576;51.902;-8.462;2024-02-28T12:19:08;14.40;71.00
80274;DHT22;69576;51.902;-8.462;2024-02-28T12:21:38;14.40;71.00
80274;DHT22;69576;51.902;-8.462;2024-02-28T12:24:08;14.40;71.00
80274;DHT22;69576;51.902;-8.462;2024-02-28T12:26:37;14.50;70.70
80274;DHT22;69576;51.902;-8.462;2024-02-28T12:29:03;14.50;70.70
80274;DHT22;69576;51.902;-8.462;2024-02-28T12:31:29;14.50;70.70
80274;DHT22;69576;51.902;-8.462;2024-02-28T12:33:55;14.50;70.80
80274;DHT22;69576;51.902;-8.462;2024-02-28T12:36:24;14.50;70.90
80274;DHT22;69576;51.902;-8.462;2024-02-28T12:38:52;14.50;70.50
80274;DHT22;69576;51.902;-8.462;2024-02-28T12:41:21;14.50;70.80
80274;DHT22;69576;51.902;-8.462;2024-02-28T12:43:50;14.50;70.80
80274;DHT22;69576;51.902;-8.462;2024-02-28T12:46:16;14.50;71.20
80274;DHT22;69576;51.902;-8.462;2024-02-28T12:48:44;14.60;71.20
80274;DHT22;69576;51.902;-8.462;2024-02-28T12:51:35;14.60;71.40
80274;DHT22;69576;51.902;-8.462;2024-02-28T12:54:01;14.60;71.50
80274;DHT22;69576;51.902;-8.462;2024-02-28T12:56:29;14.60;71.20
80274;DHT22;69576;51.902;-8.462;2024-02-28T12:58:57;14.60;71.50
80274;DHT22;69576;51.902;-8.462;2024-02-28T13:01:26;14.60;71.10
80274;DHT22;69576;51.902;-8.462;2024-02-28T13:03:52;14.60;71.10
80274;DHT22;69576;51.902;-8.462;2024-02-28T13:06:18;14.60;70.70
80274;DHT22;69576;51.902;-8.462;2024-02-28T13:08:44;14.60;71.00
80274;DHT22;69576;51.902;-8.462;2024-02-28T13:11:21;14.60;71.10
80274;DHT22;69576;51.902;-8.462;2024-02-28T13:13:51;14.60;70.80
80274;DHT22;69576;51.902;-8.462;2024-02-28T13:16:20;14.60;71.40
80274;DHT22;69576;51.902;-8.462;2024-02-28T13:18:47;14.60;71.40
80274;DHT22;69576;51.902;-8.462;2024-02-28T13:21:12;14.60;71.60
80274;DHT22;69576;51.902;-8.462;2024-02-28T13:23:41;14.60;71.30
80274;DHT22;69576;51.902;-8.462;2024-02-28T13:26:07;14.70;71.20
80274;DHT22;69576;51.902;-8.462;2024-02-28T13:28:33;14.70;70.90
80274;DHT22;69576;51.902;-8.462;2024-02-28T13:31:03;14.70;70.60
80274;DHT22;69576;51.902;-8.462;2024-02-28T13:33:32;14.70;70.60
80274;DHT22;69576;51.902;-8.462;2024-02-28T13:36:00;14.70;70.40
80274;DHT22;69576;51.902;-8.462;2024-02-28T13:38:28;14.70;70.30
80274;DHT22;69576;51.902;-8.462;2024-02-28T13:40:54;14.70;70.20
80274;DHT22;69576;51.902;-8.462;2024-02-28T13:43:20;14.70;70.10
80274;DHT22;69576;51.902;-8.462;2024-02-28T13:45:49;14.70;70.10
80274;DHT22;69576;51.902;-8.462;2024-02-28T13:48:21;14.70;69.90
80274;DHT22;69576;51.902;-8.462;2024-02-28T13:50:50;14.60;69.90
80274;DHT22;69576;51.902;-8.462;2024-02-28T13:53:16;14.60;70.00
80274;DHT22;69576;51.902;-8.462;2024-02-28T13:55:42;14.60;69.90
80274;DHT22;69576;51.902;-8.462;2024-02-28T13:58:10;14.60;69.90
80274;DHT22;69576;51.902;-8.462;2024-02-28T14:00:37;14.60;69.80
80274;DHT22;69576;51.902;-8.462;2024-02-28T14:03:04;14.50;69.90
80274;DHT22;69576;51.902;-8.462;2024-02-28T14:05:32;14.50;70.00
80274;DHT22;69576;51.902;-8.462;2024-02-28T14:08:01;14.50;70.00
80274;DHT22;69576;51.902;-8.462;2024-02-28T14:10:29;14.50;70.00
80274;DHT22;69576;51.902;-8.462;2024-02-28T14:13:00;14.50;70.00
80274;DHT22;69576;51.902;-8.462;2024-02-28T14:15:31;14.50;70.00
80274;DHT22;69576;51.902;-8.462;2024-02-28T14:17:56;14.50;70.00
80274;DHT22;69576;51.902;-8.462;2024-02-28T14:20:25;14.60;69.90
80274;DHT22;69576;51.902;-8.462;2024-02-28T14:22:54;14.60;69.90
80274;DHT22;69576;51.902;-8.462;2024-02-28T14:25:23;14.60;69.80
80274;DHT22;69576;51.902;-8.462;2024-02-28T14:27:51;14.60;69.80
80274;DHT22;69576;51.902;-8.462;2024-02-28T14:30:17;14.60;69.80
80274;DHT22;69576;51.902;-8.462;2024-02-28T14:32:47;14.60;69.70
80274;DHT22;69576;51.902;-8.462;2024-02-28T14:35:15;14.60;69.70
80274;DHT22;69576;51.902;-8.462;2024-02-28T14:37:44;14.60;69.70
80274;DHT22;69576;51.902;-8.462;2024-02-28T14:40:10;14.50;69.70
80274;DHT22;69576;51.902;-8.462;2024-02-28T14:42:42;14.50;69.80
80274;DHT22;69576;51.902;-8.462;2024-02-28T14:45:12;14.50;69.70
80274;DHT22;69576;51.902;-8.462;2024-02-28T14:47:41;14.50;69.70
80274;DHT22;69576;51.902;-8.462;2024-02-28T14:50:08;14.50;69.90
80274;DHT22;69576;51.902;-8.462;2024-02-28T14:52:41;14.50;69.90
80274;DHT22;69576;51.902;-8.462;2024-02-28T14:55:10;14.50;70.00
80274;DHT22;69576;51.902;-8.462;2024-02-28T14:57:37;14.50;70.00
80274;DHT22;69576;51.902;-8.462;2024-02-28T15:00:03;14.50;70.10
80274;DHT22;69576;51.902;-8.462;2024-02-28T15:02:50;14.50;70.10
80274;DHT22;69576;51.902;-8.462;2024-02-28T15:05:21;14.50;70.40
80274;DHT22;69576;51.902;-8.462;2024-02-28T15:07:50;14.50;70.50
80274;DHT22;69576;51.902;-8.462;2024-02-28T15:10:20;14.40;70.70
80274;DHT22;69576;51.902;-8.462;2024-02-28T15:12:46;14.40;70.70
80274;DHT22;69576;51.902;-8.462;2024-02-28T15:15:12;14.50;70.60
80274;DHT22;69576;51.902;-8.462;2024-02-28T15:17:38;14.40;70.80
80274;DHT22;69576;51.902;-8.462;2024-02-28T15:20:06;14.50;70.80